Mineral, California
Current Conditions -  °F | °C
As of 12:54 AM on Saturday 25 Oct 2014 (Local Time) from KRBL Reporting Station
Clear Clear  
Wind Chill: 62°   Ceiling: Unl
Heat Index: 62°   Visibility: 10mi
Dew Point: 52°   Wind: 18mph
Humidity: 70%   Direction: 140°SE
Pressure: 29.82"   Gusts: NA
Location:  40.35°N, 121.6°W
Report Text: KRBL 250754Z AUTO 14016KT 10SM CLR 17/11 A2982 RMK AO2 SLP094 T01670111 402330122
Loading
Personal Weather Stations






























Interactive Weather Map
Tropical Storm Tracking
New forecast layout! Learn more

10-Day Weather Forecast

Advertisements
Track Severe Weather on mobile